createdAt,value
2022-10-13T00:00:49.880Z,15.68
2022-10-13T00:03:52.556Z,17.17
2022-10-13T00:06:58.065Z,17.17
2022-10-13T00:10:01.412Z,16.83
2022-10-13T00:13:03.909Z,17.75
2022-10-13T00:16:06.402Z,18.95
2022-10-13T00:19:12.870Z,18.85
2022-10-13T00:22:17.447Z,17.43
2022-10-13T00:25:21.054Z,17.25
2022-10-13T00:28:23.355Z,17.05
2022-10-13T00:31:27.173Z,17.45
2022-10-13T00:34:29.385Z,16.80
2022-10-13T00:37:31.549Z,14.83
2022-10-13T00:40:33.747Z,17.05
2022-10-13T00:43:48.353Z,16.45
2022-10-13T00:46:50.564Z,17.48
2022-10-13T00:49:54.008Z,18.55
2022-10-13T00:52:56.706Z,18.13
2022-10-13T00:55:59.152Z,17.05
2022-10-13T00:59:01.580Z,18.38
2022-10-13T01:02:04.073Z,17.65
2022-10-13T01:05:07.435Z,17.10
2022-10-13T01:08:10.527Z,16.90
2022-10-13T01:11:12.748Z,16.92
2022-10-13T01:14:19.048Z,16.33
2022-10-13T01:17:40.014Z,15.98
2022-10-13T01:20:42.154Z,16.75
2022-10-13T01:23:44.278Z,16.37
2022-10-13T01:26:46.397Z,16.17
2022-10-13T01:29:51.772Z,17.20
2022-10-13T01:32:54.078Z,16.40
2022-10-13T01:35:59.256Z,14.20
2022-10-13T01:39:05.525Z,15.67
2022-10-13T01:42:17.132Z,16.98
2022-10-13T01:45:21.626Z,16.10
2022-10-13T01:48:24.303Z,15.85
2022-10-13T01:51:27.604Z,15.68
2022-10-13T01:54:30.182Z,14.97
2022-10-13T01:57:36.210Z,17.73
2022-10-13T02:00:43.871Z,16.60
2022-10-13T02:04:04.859Z,14.57
2022-10-13T02:07:15.738Z,17.48
2022-10-13T02:10:21.425Z,17.30
2022-10-13T02:13:26.699Z,16.13
2022-10-13T02:16:31.439Z,17.08
2022-10-13T02:19:34.920Z,16.25
2022-10-13T02:22:40.783Z,16.02
2022-10-13T02:25:43.038Z,14.77
2022-10-13T02:28:45.347Z,17.25
2022-10-13T02:31:47.976Z,18.40
2022-10-13T02:34:50.254Z,16.73
2022-10-13T02:37:52.413Z,16.52
2022-10-13T02:40:55.049Z,14.27
2022-10-13T02:43:57.655Z,15.35
2022-10-13T02:47:05.859Z,17.63
2022-10-13T02:50:08.274Z,17.08
2022-10-13T02:53:10.402Z,15.50
2022-10-13T02:56:12.613Z,15.03
2022-10-13T02:59:14.970Z,15.43
2022-10-13T03:02:17.899Z,13.60
2022-10-13T03:05:20.349Z,14.93
2022-10-13T03:08:22.460Z,11.02
2022-10-13T03:11:24.751Z,14.33
2022-10-13T03:14:26.894Z,14.05
2022-10-13T03:17:29.102Z,13.75
2022-10-13T03:20:31.243Z,14.55
2022-10-13T03:23:33.986Z,13.93
2022-10-13T03:26:36.172Z,13.90
2022-10-13T03:29:38.391Z,14.18
2022-10-13T03:32:40.801Z,15.68
2022-10-13T03:35:43.009Z,14.57
2022-10-13T03:38:45.312Z,14.20
2022-10-13T03:41:47.897Z,15.33
2022-10-13T03:44:55.254Z,13.40
2022-10-13T03:47:58.829Z,12.20
2022-10-13T03:51:04.728Z,13.50
2022-10-13T03:54:06.894Z,15.05
2022-10-13T03:57:09.035Z,15.53
2022-10-13T04:00:11.656Z,15.50
2022-10-13T04:03:15.188Z,16.30
2022-10-13T04:06:17.795Z,13.30
2022-10-13T04:09:20.156Z,14.20
2022-10-13T04:12:22.581Z,13.93
2022-10-13T04:15:24.977Z,14.35
2022-10-13T04:18:30.410Z,12.18
2022-10-13T04:21:33.641Z,14.10
2022-10-13T04:24:35.909Z,14.05
2022-10-13T04:27:39.397Z,14.53
2022-10-13T04:30:45.789Z,13.23
2022-10-13T04:33:51.336Z,8.48
2022-10-13T04:36:53.464Z,13.52
2022-10-13T04:39:55.631Z,13.68
2022-10-13T04:42:58.615Z,13.03
2022-10-13T04:46:04.936Z,12.90
2022-10-13T04:49:13.680Z,12.48
2022-10-13T04:52:19.057Z,13.52
2022-10-13T04:55:23.916Z,15.27
2022-10-13T04:58:26.287Z,14.10
2022-10-13T05:01:28.560Z,13.02
2022-10-13T05:04:30.819Z,13.13
2022-10-13T05:07:32.965Z,15.63
2022-10-13T05:10:35.402Z,14.45
2022-10-13T05:13:37.858Z,14.13
2022-10-13T05:16:40.051Z,12.05
2022-10-13T05:19:42.554Z,12.85
2022-10-13T05:22:48.404Z,13.05
2022-10-13T05:25:50.641Z,13.07
2022-10-13T05:28:54.320Z,14.10
2022-10-13T05:31:58.645Z,14.32
2022-10-13T05:35:02.521Z,15.23
2022-10-13T05:38:08.273Z,13.07
2022-10-13T05:41:14.098Z,14.50
2022-10-13T05:44:17.942Z,16.20
2022-10-13T05:47:34.410Z,17.92
2022-10-13T05:50:37.425Z,17.15
2022-10-13T05:53:49.607Z,16.05
2022-10-13T05:57:22.111Z,15.15
2022-10-13T06:00:34.111Z,15.70
2022-10-13T06:03:42.186Z,15.60
2022-10-13T06:06:45.266Z,17.38
2022-10-13T06:09:48.195Z,16.08
2022-10-13T06:12:53.321Z,18.50
2022-10-13T06:16:04.021Z,19.10
2022-10-13T06:19:09.692Z,20.17
2022-10-13T06:22:12.692Z,18.98
2022-10-13T06:25:15.736Z,19.02
2022-10-13T06:28:21.972Z,20.60
2022-10-13T06:31:29.347Z,23.57
2022-10-13T06:34:34.686Z,23.30
2022-10-13T06:37:39.265Z,24.25
2022-10-13T06:40:47.864Z,22.73
2022-10-13T06:43:52.164Z,22.40
2022-10-13T06:47:06.993Z,20.70
2022-10-13T06:50:10.685Z,20.17
2022-10-13T06:53:14.803Z,19.92
2022-10-13T06:56:23.526Z,17.55
2022-10-13T06:59:27.840Z,17.38
2022-10-13T07:02:35.527Z,16.97
2022-10-13T07:05:44.595Z,15.13
2022-10-13T07:12:21.819Z,13.70
2022-10-13T07:15:33.378Z,13.57
2022-10-13T07:18:36.324Z,13.00
2022-10-13T07:21:38.765Z,12.82
2022-10-13T07:24:45.312Z,11.07
2022-10-13T07:27:47.742Z,10.40
2022-10-13T07:30:50.154Z,11.20
2022-10-13T07:33:52.611Z,11.50
2022-10-13T07:36:58.485Z,9.40
2022-10-13T07:40:00.841Z,10.48
2022-10-13T07:43:04.617Z,10.77
2022-10-13T07:46:07.584Z,9.32
2022-10-13T07:49:17.419Z,9.57
2022-10-13T07:52:23.462Z,8.70
2022-10-13T07:55:25.943Z,8.20
2022-10-13T07:58:30.189Z,7.55
2022-10-13T08:01:32.794Z,8.45
2022-10-13T08:04:35.864Z,8.00
2022-10-13T08:07:39.360Z,7.38
2022-10-13T08:10:41.658Z,7.28
2022-10-13T08:13:50.934Z,5.15
2022-10-13T08:16:58.690Z,5.85
2022-10-13T08:20:02.528Z,5.17
2022-10-13T08:23:04.727Z,4.85
2022-10-13T08:26:13.221Z,4.97
2022-10-13T08:29:24.185Z,4.53
2022-10-13T08:32:26.819Z,4.80
2022-10-13T08:35:34.085Z,5.00
2022-10-13T08:38:37.582Z,4.47
2022-10-13T08:41:48.340Z,4.35
2022-10-13T08:45:36.301Z,4.30
2022-10-13T08:48:36.856Z,4.38
2022-10-13T08:51:40.729Z,4.30
2022-10-13T08:54:43.227Z,4.28
2022-10-13T08:57:53.293Z,4.30
2022-10-13T09:01:09.104Z,4.57
2022-10-13T09:04:18.547Z,4.72
2022-10-13T09:07:29.784Z,4.83
2022-10-13T09:10:32.269Z,4.50
2022-10-13T09:13:35.367Z,4.53
2022-10-13T09:16:45.860Z,4.45
2022-10-13T09:20:05.648Z,4.65
2022-10-13T09:23:17.360Z,5.00
2022-10-13T09:26:25.256Z,4.53
2022-10-13T09:29:36.330Z,4.90
2022-10-13T09:32:40.078Z,5.07
2022-10-13T09:35:43.610Z,5.32
2022-10-13T09:39:05.818Z,4.33
2022-10-13T09:42:37.930Z,5.15
2022-10-13T09:45:46.743Z,5.45
2022-10-13T09:48:51.112Z,6.00
2022-10-13T09:51:59.520Z,4.85
2022-10-13T09:55:34.736Z,6.00
2022-10-13T09:59:02.885Z,5.40
2022-10-13T10:02:21.343Z,5.47
2022-10-13T10:05:32.332Z,5.28
2022-10-13T10:09:04.814Z,5.55
2022-10-13T10:12:27.685Z,5.73
2022-10-13T10:15:45.498Z,5.78
2022-10-13T10:18:57.747Z,5.40
2022-10-13T10:22:06.414Z,5.68
2022-10-13T10:25:30.015Z,6.05
2022-10-13T10:29:02.131Z,6.20
2022-10-13T10:32:26.449Z,6.28
2022-10-13T10:35:38.197Z,6.63
2022-10-13T10:38:43.530Z,6.10
2022-10-13T10:42:04.462Z,6.38
2022-10-13T10:45:15.661Z,6.50
2022-10-13T10:48:22.266Z,6.32
2022-10-13T10:52:23.278Z,6.90
2022-10-13T10:56:18.549Z,6.43
2022-10-13T10:59:31.789Z,7.53
2022-10-13T11:03:03.349Z,7.20
2022-10-13T11:06:21.807Z,7.10
2022-10-13T11:09:41.647Z,6.68
2022-10-13T11:12:53.852Z,7.20
2022-10-13T11:15:56.358Z,7.68
2022-10-13T11:19:08.295Z,7.93
2022-10-13T11:22:13.889Z,8.88
2022-10-13T11:25:40.487Z,8.13
2022-10-13T11:28:43.173Z,7.30
2022-10-13T11:31:48.866Z,8.23
2022-10-13T11:35:14.499Z,7.90
2022-10-13T11:38:28.699Z,6.95
2022-10-13T11:41:41.564Z,7.78
2022-10-13T11:44:46.408Z,7.85
2022-10-13T11:47:56.491Z,7.43
2022-10-13T11:51:14.004Z,7.20
2022-10-13T11:54:30.561Z,7.22
2022-10-13T11:57:47.542Z,7.28
2022-10-13T12:01:13.414Z,7.60
2022-10-13T12:04:15.883Z,7.93
2022-10-13T12:07:22.272Z,7.33
2022-10-13T12:10:31.990Z,7.95
2022-10-13T12:13:47.047Z,8.30
2022-10-13T12:17:23.217Z,8.00
2022-10-13T12:20:32.793Z,8.63
2022-10-13T12:23:35.092Z,8.33
2022-10-13T12:26:37.519Z,8.32
2022-10-13T12:29:44.941Z,8.20
2022-10-13T12:32:59.460Z,8.00
2022-10-13T12:36:12.289Z,8.65
2022-10-13T12:39:15.330Z,8.33
2022-10-13T12:42:27.951Z,9.55
2022-10-13T12:45:36.464Z,8.70
2022-10-13T12:48:38.772Z,8.65
2022-10-13T12:51:52.222Z,9.40
2022-10-13T12:56:05.367Z,9.53
2022-10-13T12:59:15.552Z,9.35
2022-10-13T13:02:44.956Z,9.10
2022-10-13T13:05:52.338Z,9.38
2022-10-13T13:09:26.946Z,9.57
2022-10-13T13:12:31.975Z,9.50
2022-10-13T13:15:49.246Z,9.20
2022-10-13T13:18:54.464Z,9.57
2022-10-13T13:22:00.995Z,9.82
2022-10-13T13:25:04.658Z,10.05
2022-10-13T13:28:10.697Z,9.40
2022-10-13T13:31:13.075Z,9.65
2022-10-13T13:34:15.357Z,9.32
2022-10-13T13:37:24.777Z,9.35
2022-10-13T13:40:28.492Z,9.85
2022-10-13T13:43:30.823Z,9.53
2022-10-13T13:46:35.124Z,10.27
2022-10-13T13:49:37.456Z,9.52
2022-10-13T13:52:40.496Z,10.07
2022-10-13T13:55:47.235Z,9.68
2022-10-13T13:58:55.554Z,9.70
2022-10-13T14:01:59.397Z,9.10
2022-10-13T14:05:01.816Z,9.32
2022-10-13T14:08:04.869Z,9.43
2022-10-13T14:11:07.652Z,8.57
2022-10-13T14:14:09.940Z,9.20
2022-10-13T14:17:12.173Z,8.07
2022-10-13T14:20:14.395Z,8.77
2022-10-13T14:23:22.469Z,7.78
2022-10-13T14:26:24.692Z,8.45
2022-10-13T14:29:26.914Z,8.23
2022-10-13T14:32:29.119Z,8.65
2022-10-13T14:35:32.433Z,8.63
2022-10-13T14:38:34.790Z,8.27
2022-10-13T14:41:38.814Z,8.68
2022-10-13T14:44:40.982Z,8.53
2022-10-13T14:47:43.386Z,8.32
2022-10-13T14:50:45.624Z,8.93
2022-10-13T14:53:47.856Z,8.70
2022-10-13T14:56:59.918Z,8.23
2022-10-13T15:00:12.787Z,8.97
2022-10-13T15:03:15.164Z,8.25
2022-10-13T15:06:18.647Z,8.73
2022-10-13T15:09:25.544Z,9.75
2022-10-13T15:12:35.980Z,9.30
2022-10-13T15:15:38.774Z,9.00
2022-10-13T15:18:40.989Z,9.35
2022-10-13T15:21:43.222Z,8.43
2022-10-13T15:24:45.807Z,9.68
2022-10-13T15:27:48.018Z,10.70
2022-10-13T15:30:50.445Z,10.20
2022-10-13T15:33:53.844Z,9.75
2022-10-13T15:36:56.240Z,10.90
2022-10-13T15:39:58.511Z,10.98
2022-10-13T15:43:00.731Z,11.75
2022-10-13T15:46:04.514Z,10.60
2022-10-13T15:49:08.249Z,12.00
2022-10-13T15:52:10.587Z,13.10
2022-10-13T15:55:12.888Z,13.35
2022-10-13T15:58:15.492Z,12.73
2022-10-13T16:01:18.226Z,13.27
2022-10-13T16:04:20.386Z,13.38
2022-10-13T16:07:22.559Z,13.27
2022-10-13T16:10:24.877Z,13.35
2022-10-13T16:13:27.139Z,14.80
2022-10-13T16:16:29.766Z,14.20
2022-10-13T16:19:31.929Z,14.98
2022-10-13T16:22:34.193Z,14.13
2022-10-13T16:25:38.986Z,13.60
2022-10-13T16:28:41.212Z,13.40
2022-10-13T16:31:43.449Z,14.80
2022-10-13T16:34:46.981Z,14.57
2022-10-13T16:37:53.373Z,14.45
2022-10-13T16:40:55.507Z,13.35
2022-10-13T16:43:57.677Z,13.48
2022-10-13T16:47:04.762Z,13.83
2022-10-13T16:50:09.755Z,13.95
2022-10-13T16:53:12.069Z,14.10
2022-10-13T16:56:14.445Z,13.63
2022-10-13T16:59:16.602Z,15.23
2022-10-13T17:02:19.101Z,14.67
2022-10-13T17:05:21.312Z,15.30
2022-10-13T17:08:23.461Z,15.27
2022-10-13T17:11:27.450Z,15.18
2022-10-13T17:14:29.915Z,15.15
2022-10-13T17:17:32.181Z,15.30
2022-10-13T17:20:34.326Z,16.30
2022-10-13T17:23:36.928Z,16.33
2022-10-13T17:26:39.478Z,15.10
2022-10-13T17:29:41.870Z,14.90
2022-10-13T17:32:44.064Z,16.40
2022-10-13T17:35:46.250Z,16.80
2022-10-13T17:38:49.343Z,15.68
2022-10-13T17:41:51.600Z,17.73
2022-10-13T17:44:53.805Z,18.23
2022-10-13T17:47:58.746Z,19.97
2022-10-13T17:51:05.161Z,20.00
2022-10-13T17:54:12.919Z,21.10
2022-10-13T17:57:17.987Z,18.55
2022-10-13T18:00:20.628Z,19.42
2022-10-13T18:03:24.277Z,18.77
2022-10-13T18:06:27.492Z,19.77
2022-10-13T18:09:29.992Z,20.85
2022-10-13T18:12:32.617Z,21.45
2022-10-13T18:15:39.785Z,20.30
2022-10-13T18:18:43.944Z,19.83
2022-10-13T18:21:46.239Z,19.00
2022-10-13T18:24:50.381Z,19.60
2022-10-13T18:27:54.494Z,20.08
2022-10-13T18:31:01.985Z,21.52
2022-10-13T18:34:08.644Z,20.53
2022-10-13T18:37:10.857Z,19.38
2022-10-13T18:40:13.299Z,19.42
2022-10-13T18:43:15.530Z,20.25
2022-10-13T18:46:17.744Z,20.60
2022-10-13T18:49:31.346Z,19.67
2022-10-13T18:52:33.799Z,18.70
2022-10-13T18:55:36.334Z,19.83
2022-10-13T18:58:38.667Z,20.73
2022-10-13T19:01:41.669Z,19.30
2022-10-13T19:04:43.944Z,20.20
2022-10-13T19:07:46.253Z,19.45
2022-10-13T19:10:48.492Z,21.05
2022-10-13T19:13:50.758Z,21.10
2022-10-13T19:16:52.957Z,20.40
2022-10-13T19:19:57.821Z,20.97
2022-10-13T19:22:59.982Z,22.08
2022-10-13T19:26:08.975Z,22.42
2022-10-13T19:29:13.897Z,21.92
2022-10-13T19:32:16.096Z,22.40
2022-10-13T19:35:18.300Z,22.43
2022-10-13T19:38:20.470Z,21.90
2022-10-13T19:41:23.118Z,22.65
2022-10-13T19:44:25.382Z,22.13
2022-10-13T19:47:28.352Z,20.90
2022-10-13T19:50:32.762Z,22.67
2022-10-13T19:53:35.793Z,21.80
2022-10-13T19:56:37.971Z,21.02
2022-10-13T19:59:47.532Z,21.63
2022-10-13T20:02:50.145Z,21.88
2022-10-13T20:05:52.406Z,20.17
2022-10-13T20:08:54.552Z,20.15
2022-10-13T20:11:56.755Z,20.73
2022-10-13T20:14:59.220Z,21.52
2022-10-13T20:18:01.368Z,21.90
2022-10-13T20:21:06.583Z,22.03
2022-10-13T20:24:08.815Z,21.27
2022-10-13T20:27:11.197Z,20.73
2022-10-13T20:30:13.508Z,21.17
2022-10-13T20:33:15.809Z,21.80
2022-10-13T20:36:18.669Z,23.37
2022-10-13T20:39:20.924Z,22.75
2022-10-13T20:42:23.155Z,22.15
2022-10-13T20:45:25.796Z,20.42
2022-10-13T20:48:51.101Z,21.35
2022-10-13T20:52:02.193Z,22.80
2022-10-13T20:55:04.818Z,21.45
2022-10-13T20:58:10.498Z,24.50
2022-10-13T21:01:13.251Z,24.25
2022-10-13T21:04:15.597Z,21.00
2022-10-13T21:07:18.190Z,26.87
2022-10-13T21:10:20.509Z,24.90
2022-10-13T21:13:22.621Z,26.52
2022-10-13T21:16:28.937Z,25.42
2022-10-13T21:19:31.112Z,26.35
2022-10-13T21:22:33.318Z,24.10
2022-10-13T21:25:37.915Z,24.63
2022-10-13T21:28:40.248Z,23.52
2022-10-13T21:31:42.506Z,22.88
2022-10-13T21:34:44.645Z,21.90
2022-10-13T21:37:46.889Z,21.17
2022-10-13T21:40:53.713Z,21.42
2022-10-13T21:43:56.342Z,20.52
2022-10-13T21:46:58.509Z,21.05
2022-10-13T21:50:00.733Z,21.00
2022-10-13T21:53:03.198Z,19.33
2022-10-13T21:56:07.016Z,20.40
2022-10-13T21:59:10.700Z,20.20
2022-10-13T22:02:13.091Z,19.92
2022-10-13T22:05:15.255Z,17.98
2022-10-13T22:08:28.755Z,17.60
2022-10-13T22:11:41.476Z,19.13
2022-10-13T22:14:46.701Z,20.02
2022-10-13T22:17:48.866Z,18.65
2022-10-13T22:20:51.868Z,20.27
2022-10-13T22:24:04.533Z,18.77
2022-10-13T22:27:06.749Z,18.88
2022-10-13T22:30:09.245Z,19.52
2022-10-13T22:33:11.469Z,19.20
2022-10-13T22:36:15.669Z,19.80
2022-10-13T22:39:18.073Z,18.80
2022-10-13T22:42:21.369Z,18.45
2022-10-13T22:45:23.523Z,18.45
2022-10-13T22:48:25.735Z,18.85
2022-10-13T22:51:28.937Z,19.05
2022-10-13T22:54:31.068Z,19.03
2022-10-13T22:57:33.873Z,19.52
2022-10-13T23:00:36.607Z,17.35
2022-10-13T23:03:39.240Z,17.90
2022-10-13T23:06:41.388Z,18.25
2022-10-13T23:09:43.801Z,19.17
2022-10-13T23:12:45.971Z,17.92
2022-10-13T23:15:48.164Z,19.75
2022-10-13T23:18:50.500Z,20.58
2022-10-13T23:21:58.693Z,18.67
2022-10-13T23:25:00.866Z,20.43
2022-10-13T23:28:03.615Z,20.92
2022-10-13T23:31:08.538Z,21.40
2022-10-13T23:34:10.678Z,19.67
2022-10-13T23:37:12.859Z,18.20
2022-10-13T23:40:15.164Z,19.60
2022-10-13T23:43:17.549Z,18.00
2022-10-13T23:46:20.180Z,19.70
2022-10-13T23:49:22.331Z,19.10
2022-10-13T23:52:24.485Z,18.17
2022-10-13T23:55:26.726Z,17.50
2022-10-13T23:58:29.204Z,18.48
